createdAt,value
2019-05-09T00:01:15.746Z,9.30
2019-05-09T00:03:44.548Z,9.20
2019-05-09T00:06:14.203Z,9.30
2019-05-09T00:08:44.451Z,9.30
2019-05-09T00:11:14.991Z,9.20
2019-05-09T00:13:44.038Z,9.30
2019-05-09T00:16:14.510Z,9.30
2019-05-09T00:18:44.075Z,9.20
2019-05-09T00:21:20.495Z,9.30
2019-05-09T00:23:50.705Z,9.20
2019-05-09T00:26:19.391Z,9.20
2019-05-09T00:28:53.423Z,9.30
2019-05-09T00:31:23.955Z,9.30
2019-05-09T00:33:54.325Z,9.30
2019-05-09T00:36:23.295Z,9.30
2019-05-09T00:38:53.668Z,9.20
2019-05-09T00:41:23.977Z,9.20
2019-05-09T00:43:55.377Z,9.20
2019-05-09T00:46:36.231Z,9.10
2019-05-09T00:49:06.610Z,9.10
2019-05-09T00:51:35.260Z,9.20
2019-05-09T00:54:04.459Z,9.10
2019-05-09T00:56:33.327Z,9.10
2019-05-09T00:59:04.885Z,9.00
2019-05-09T01:01:34.227Z,9.00
2019-05-09T01:04:04.330Z,8.90
2019-05-09T01:06:34.905Z,8.90
2019-05-09T01:09:06.917Z,8.90
2019-05-09T01:11:35.640Z,8.90
2019-05-09T01:14:05.824Z,8.90
2019-05-09T01:16:34.749Z,8.90
2019-05-09T01:19:03.809Z,8.90
2019-05-09T01:21:33.296Z,8.90
2019-05-09T01:24:03.351Z,8.90
2019-05-09T01:26:33.351Z,8.90
2019-05-09T01:29:04.367Z,8.80
2019-05-09T01:31:34.501Z,8.80
2019-05-09T01:34:05.168Z,8.80
2019-05-09T01:36:35.365Z,8.80
2019-05-09T01:39:04.882Z,8.80
2019-05-09T01:41:34.008Z,8.80
2019-05-09T01:44:04.072Z,8.80
2019-05-09T01:46:34.384Z,8.80
2019-05-09T01:49:03.631Z,8.70
2019-05-09T01:51:33.729Z,8.70
2019-05-09T01:54:03.787Z,8.70
2019-05-09T01:56:33.903Z,8.70
2019-05-09T01:59:05.559Z,8.70
2019-05-09T02:01:34.844Z,8.70
2019-05-09T02:04:07.418Z,8.70
2019-05-09T02:06:36.633Z,8.70
2019-05-09T02:09:08.296Z,8.60
2019-05-09T02:11:42.567Z,8.70
2019-05-09T02:14:13.616Z,8.60
2019-05-09T02:17:03.242Z,8.60
2019-05-09T02:19:34.758Z,8.50
2019-05-09T02:22:06.564Z,8.50
2019-05-09T02:24:35.978Z,8.50
2019-05-09T02:27:04.696Z,8.50
2019-05-09T02:29:33.825Z,8.50
2019-05-09T02:32:04.726Z,8.40
2019-05-09T02:34:35.620Z,8.40
2019-05-09T02:37:04.937Z,8.40
2019-05-09T02:39:33.664Z,8.40
2019-05-09T02:42:09.311Z,8.40
2019-05-09T02:44:32.751Z,8.40
2019-05-09T02:47:03.021Z,8.40
2019-05-09T02:49:31.613Z,8.40
2019-05-09T02:52:01.946Z,8.30
2019-05-09T02:54:30.594Z,8.40
2019-05-09T02:56:59.321Z,8.30
2019-05-09T02:59:29.991Z,8.30
2019-05-09T03:02:03.976Z,8.30
2019-05-09T03:04:34.434Z,8.30
2019-05-09T03:07:03.154Z,8.20
2019-05-09T03:09:32.693Z,8.20
2019-05-09T03:12:21.084Z,8.20
2019-05-09T03:14:32.510Z,8.10
2019-05-09T03:17:01.782Z,8.10
2019-05-09T03:19:30.487Z,8.00
2019-05-09T03:22:10.834Z,8.00
2019-05-09T03:24:39.635Z,8.00
2019-05-09T03:27:10.169Z,8.00
2019-05-09T03:29:43.513Z,8.00
2019-05-09T03:32:13.681Z,8.00
2019-05-09T03:34:42.335Z,7.90
2019-05-09T03:37:11.506Z,7.90
2019-05-09T03:39:41.893Z,7.90
2019-05-09T03:42:10.721Z,7.90
2019-05-09T03:44:39.458Z,7.90
2019-05-09T03:47:09.939Z,7.90
2019-05-09T03:49:38.637Z,7.90
2019-05-09T03:52:07.654Z,7.90
2019-05-09T03:54:37.528Z,7.80
2019-05-09T03:57:17.975Z,7.80
2019-05-09T03:59:48.138Z,7.80
2019-05-09T04:02:21.153Z,7.70
2019-05-09T04:05:00.082Z,7.70
2019-05-09T04:07:24.268Z,7.70
2019-05-09T04:09:52.861Z,7.70
2019-05-09T04:12:21.598Z,7.70
2019-05-09T04:14:50.231Z,7.70
2019-05-09T04:17:19.947Z,7.70
2019-05-09T04:19:51.315Z,7.70
2019-05-09T04:22:20.034Z,7.70
2019-05-09T04:24:49.194Z,7.70
2019-05-09T04:27:19.465Z,7.70
2019-05-09T04:29:48.465Z,7.70
2019-05-09T04:32:20.123Z,7.70
2019-05-09T04:34:48.743Z,7.70
2019-05-09T04:37:18.035Z,7.80
2019-05-09T04:39:47.680Z,8.10
2019-05-09T04:42:18.543Z,8.30
2019-05-09T04:44:49.876Z,8.50
2019-05-09T04:47:18.889Z,8.50
2019-05-09T04:49:47.917Z,8.30
2019-05-09T04:52:18.072Z,8.10
2019-05-09T04:54:48.535Z,8.00
2019-05-09T04:57:17.932Z,8.20
2019-05-09T04:59:47.559Z,8.50
2019-05-09T05:02:24.615Z,8.60
2019-05-09T05:04:58.366Z,8.70
2019-05-09T05:07:28.527Z,8.70
2019-05-09T05:09:58.192Z,8.50
2019-05-09T05:12:27.739Z,8.30
2019-05-09T05:14:57.933Z,8.10
2019-05-09T05:17:30.703Z,8.10
2019-05-09T05:20:01.467Z,8.30
2019-05-09T05:22:34.618Z,8.70
2019-05-09T05:25:04.615Z,9.00
2019-05-09T05:27:33.257Z,9.30
2019-05-09T05:30:01.952Z,9.30
2019-05-09T05:32:35.149Z,9.40
2019-05-09T05:35:12.861Z,9.50
2019-05-09T05:37:41.724Z,9.70
2019-05-09T05:40:10.517Z,9.70
2019-05-09T05:42:39.208Z,9.70
2019-05-09T05:45:07.904Z,9.90
2019-05-09T05:47:44.791Z,10.10
2019-05-09T05:50:13.493Z,10.40
2019-05-09T05:52:42.121Z,10.50
2019-05-09T05:55:10.954Z,10.80
2019-05-09T05:57:42.439Z,10.80
2019-05-09T06:00:14.703Z,10.80
2019-05-09T06:02:43.478Z,11.00
2019-05-09T06:05:12.199Z,11.10
2019-05-09T06:07:40.923Z,11.30
2019-05-09T06:10:09.824Z,11.50
2019-05-09T06:12:38.464Z,11.20
2019-05-09T06:15:08.494Z,10.90
2019-05-09T06:17:38.067Z,10.80
2019-05-09T06:20:08.886Z,10.50
2019-05-09T06:22:38.882Z,10.20
2019-05-09T06:25:09.873Z,10.30
2019-05-09T06:27:38.069Z,10.20
2019-05-09T06:30:13.684Z,10.20
2019-05-09T06:32:42.616Z,10.20
2019-05-09T06:35:17.655Z,10.60
2019-05-09T06:37:47.804Z,11.10
2019-05-09T06:40:21.602Z,11.80
2019-05-09T06:42:52.972Z,12.30
2019-05-09T06:45:30.661Z,12.60
2019-05-09T06:48:02.709Z,12.50
2019-05-09T06:50:34.055Z,12.70
2019-05-09T06:53:07.927Z,12.50
2019-05-09T06:55:33.390Z,12.50
2019-05-09T06:58:08.996Z,12.70
2019-05-09T07:00:58.275Z,13.00
2019-05-09T07:03:32.169Z,13.00
2019-05-09T07:06:29.162Z,13.20
2019-05-09T07:09:04.666Z,13.30
2019-05-09T07:11:37.962Z,13.20
2019-05-09T07:14:08.300Z,13.00
2019-05-09T07:16:37.638Z,13.20
2019-05-09T07:19:09.285Z,13.50
2019-05-09T07:21:57.935Z,13.70
2019-05-09T07:24:28.678Z,13.50
2019-05-09T07:27:04.805Z,13.30
2019-05-09T07:29:37.541Z,13.20
2019-05-09T07:32:18.200Z,12.90
2019-05-09T07:34:50.911Z,12.90
2019-05-09T07:37:21.279Z,13.20
2019-05-09T07:39:50.058Z,13.40
2019-05-09T07:42:18.918Z,13.40
2019-05-09T07:44:52.426Z,12.70
2019-05-09T07:47:21.561Z,12.70
2019-05-09T07:49:54.593Z,12.70
2019-05-09T07:52:25.279Z,13.10
2019-05-09T07:55:22.107Z,12.90
2019-05-09T07:57:55.100Z,13.10
2019-05-09T08:00:38.421Z,13.40
2019-05-09T08:03:10.340Z,13.90
2019-05-09T08:05:42.042Z,14.00
2019-05-09T08:08:19.024Z,13.60
2019-05-09T08:10:52.283Z,14.00
2019-05-09T08:13:21.666Z,14.40
2019-05-09T08:15:58.985Z,14.90
2019-05-09T08:18:28.245Z,15.40
2019-05-09T08:20:57.777Z,14.90
2019-05-09T08:23:27.533Z,15.20
2019-05-09T08:25:57.907Z,15.40
2019-05-09T08:28:29.753Z,16.00
2019-05-09T08:31:00.213Z,16.60
2019-05-09T08:33:30.894Z,16.00
2019-05-09T08:35:59.625Z,15.20
2019-05-09T08:38:28.600Z,15.40
2019-05-09T08:41:09.401Z,15.20
2019-05-09T08:43:42.634Z,15.50
2019-05-09T08:46:12.083Z,15.90
2019-05-09T08:48:42.287Z,16.10
2019-05-09T08:51:12.643Z,16.60
2019-05-09T08:53:41.289Z,17.50
2019-05-09T08:56:13.128Z,17.30
2019-05-09T08:58:41.533Z,17.00
2019-05-09T09:01:13.593Z,17.60
2019-05-09T09:03:45.508Z,17.60
2019-05-09T09:06:18.191Z,17.10
2019-05-09T09:08:48.312Z,17.70
2019-05-09T09:11:18.787Z,18.50
2019-05-09T09:13:51.602Z,18.20
2019-05-09T09:16:22.575Z,18.60
2019-05-09T09:18:50.836Z,18.70
2019-05-09T09:21:22.285Z,17.50
2019-05-09T09:23:52.398Z,17.50
2019-05-09T09:26:21.262Z,17.00
2019-05-09T09:28:49.994Z,17.00
2019-05-09T09:31:19.016Z,16.40
2019-05-09T09:33:48.166Z,15.80
2019-05-09T09:36:18.413Z,15.20
2019-05-09T09:38:58.752Z,15.10
2019-05-09T09:41:31.766Z,15.80
2019-05-09T09:44:00.436Z,17.40
2019-05-09T09:46:29.453Z,17.60
2019-05-09T09:48:58.954Z,17.90
2019-05-09T09:51:33.815Z,16.80
2019-05-09T09:54:05.252Z,16.90
2019-05-09T09:56:38.449Z,17.00
2019-05-09T09:59:19.003Z,16.00
2019-05-09T10:01:52.276Z,15.90
2019-05-09T10:04:24.561Z,16.90
2019-05-09T10:06:58.258Z,17.70
2019-05-09T10:09:29.623Z,18.60
2019-05-09T10:12:01.657Z,18.90
2019-05-09T10:14:38.292Z,18.30
2019-05-09T10:17:31.635Z,17.10
2019-05-09T10:20:08.686Z,16.40
2019-05-09T10:22:44.711Z,16.90
2019-05-09T10:25:11.248Z,18.50
2019-05-09T10:27:41.921Z,18.90
2019-05-09T10:30:11.173Z,17.90
2019-05-09T10:32:41.439Z,17.20
2019-05-09T10:35:11.989Z,16.90
2019-05-09T10:37:43.398Z,16.30
2019-05-09T10:40:15.203Z,15.40
2019-05-09T10:42:48.342Z,15.30
2019-05-09T10:45:40.804Z,15.40
2019-05-09T10:48:11.081Z,15.30
2019-05-09T10:50:54.034Z,14.40
2019-05-09T10:53:21.684Z,13.90
2019-05-09T10:55:52.061Z,13.70
2019-05-09T10:58:23.835Z,13.50
2019-05-09T11:00:52.558Z,13.50
2019-05-09T11:03:26.737Z,14.00
2019-05-09T11:05:57.829Z,14.10
2019-05-09T11:08:30.195Z,14.20
2019-05-09T11:11:09.370Z,14.20
2019-05-09T11:13:39.024Z,14.10
2019-05-09T11:16:12.263Z,14.40
2019-05-09T11:18:48.257Z,14.70
2019-05-09T11:21:19.297Z,15.20
2019-05-09T11:23:49.261Z,15.40
2019-05-09T11:26:19.563Z,15.50
2019-05-09T11:28:49.768Z,14.80
2019-05-09T11:31:19.048Z,14.50
2019-05-09T11:33:52.446Z,14.90
2019-05-09T11:36:29.885Z,14.90
2019-05-09T11:39:10.262Z,14.70
2019-05-09T11:41:38.377Z,15.20
2019-05-09T11:44:09.282Z,15.50
2019-05-09T11:46:38.517Z,15.50
2019-05-09T11:49:08.653Z,15.20
2019-05-09T11:51:37.887Z,15.20
2019-05-09T11:54:08.820Z,14.70
2019-05-09T11:56:38.414Z,14.30
2019-05-09T11:59:10.327Z,14.50
2019-05-09T12:01:41.094Z,14.60
2019-05-09T12:04:09.927Z,14.50
2019-05-09T12:06:41.747Z,14.70
2019-05-09T12:09:14.745Z,14.70
2019-05-09T12:11:48.458Z,14.60
2019-05-09T12:14:21.591Z,14.80
2019-05-09T12:16:51.938Z,15.20
2019-05-09T12:19:20.625Z,14.90
2019-05-09T12:21:51.715Z,14.70
2019-05-09T12:24:24.420Z,14.50
2019-05-09T12:26:54.591Z,14.50
2019-05-09T12:29:29.117Z,14.40
2019-05-09T12:31:55.292Z,14.30
2019-05-09T12:34:34.285Z,14.60
2019-05-09T12:37:06.134Z,14.60
2019-05-09T12:39:35.062Z,14.40
2019-05-09T12:42:08.700Z,14.30
2019-05-09T12:44:40.145Z,14.30
2019-05-09T12:47:10.625Z,13.90
2019-05-09T12:49:41.839Z,13.80
2019-05-09T12:52:21.199Z,13.80
2019-05-09T12:54:51.412Z,13.70
2019-05-09T12:57:29.060Z,13.70
2019-05-09T12:59:58.843Z,13.50
2019-05-09T13:02:29.995Z,13.30
2019-05-09T13:04:58.725Z,13.30
2019-05-09T13:07:29.757Z,13.40
2019-05-09T13:10:00.425Z,13.60
2019-05-09T13:12:33.709Z,13.90
2019-05-09T13:15:08.880Z,13.90
2019-05-09T13:17:47.746Z,13.80
2019-05-09T13:20:18.111Z,13.90
2019-05-09T13:22:48.047Z,13.80
2019-05-09T13:25:28.992Z,13.80
2019-05-09T13:27:53.195Z,13.80
2019-05-09T13:30:22.207Z,13.90
2019-05-09T13:33:02.838Z,13.70
2019-05-09T13:35:35.939Z,13.60
2019-05-09T13:38:08.518Z,13.40
2019-05-09T13:40:37.909Z,13.30
2019-05-09T13:43:08.934Z,13.30
2019-05-09T13:45:41.877Z,13.30
2019-05-09T13:48:26.551Z,13.30
2019-05-09T13:50:45.027Z,13.70
2019-05-09T13:53:19.117Z,13.90
2019-05-09T13:55:48.960Z,14.20
2019-05-09T13:58:21.854Z,14.20
2019-05-09T14:00:58.638Z,14.20
2019-05-09T14:03:21.482Z,14.20
2019-05-09T14:05:50.203Z,14.80
2019-05-09T14:08:24.792Z,14.70
2019-05-09T14:10:55.304Z,14.80
2019-05-09T14:13:24.270Z,14.80
2019-05-09T14:15:53.279Z,14.90
2019-05-09T14:18:27.941Z,15.40
2019-05-09T14:20:58.359Z,15.40
2019-05-09T14:23:35.403Z,15.20
2019-05-09T14:26:01.145Z,15.20
2019-05-09T14:28:30.172Z,15.30
2019-05-09T14:31:00.345Z,15.00
2019-05-09T14:33:31.796Z,14.90
2019-05-09T14:36:05.064Z,15.00
2019-05-09T14:38:33.792Z,15.00
2019-05-09T14:41:07.838Z,14.70
2019-05-09T14:43:39.410Z,14.30
2019-05-09T14:46:11.195Z,14.10
2019-05-09T14:48:41.594Z,14.00
2019-05-09T14:51:11.172Z,14.00
2019-05-09T14:53:42.524Z,13.80
2019-05-09T14:56:12.822Z,13.80
2019-05-09T14:58:41.537Z,13.80
2019-05-09T15:01:10.266Z,13.70
2019-05-09T15:03:41.651Z,13.70
2019-05-09T15:06:18.259Z,13.50
2019-05-09T15:08:53.582Z,13.70
2019-05-09T15:11:23.581Z,13.70
2019-05-09T15:13:52.223Z,13.60
2019-05-09T15:16:28.033Z,13.50
2019-05-09T15:19:08.192Z,13.60
2019-05-09T15:21:40.850Z,13.70
2019-05-09T15:24:11.097Z,13.80
2019-05-09T15:26:44.101Z,13.90
2019-05-09T15:29:21.970Z,13.90
2019-05-09T15:31:55.025Z,14.00
2019-05-09T15:34:22.735Z,14.00
2019-05-09T15:36:58.288Z,13.90
2019-05-09T15:39:33.398Z,14.00
2019-05-09T15:42:07.273Z,14.00
2019-05-09T15:44:40.978Z,14.10
2019-05-09T15:47:11.338Z,14.10
2019-05-09T15:49:41.438Z,14.00
2019-05-09T15:52:10.324Z,14.00
2019-05-09T15:54:46.215Z,13.80
2019-05-09T15:57:12.727Z,13.80
2019-05-09T15:59:41.379Z,13.90
2019-05-09T16:02:10.295Z,14.10
2019-05-09T16:04:40.757Z,14.10
2019-05-09T16:07:14.280Z,14.10
2019-05-09T16:09:48.109Z,14.00
2019-05-09T16:12:20.905Z,13.80
2019-05-09T16:14:49.548Z,13.80
2019-05-09T16:17:19.315Z,13.70
2019-05-09T16:19:57.623Z,13.60
2019-05-09T16:22:28.388Z,13.50
2019-05-09T16:24:59.698Z,13.40
2019-05-09T16:27:37.937Z,13.40
2019-05-09T16:30:08.607Z,13.20
2019-05-09T16:32:41.808Z,13.10
2019-05-09T16:35:13.342Z,13.00
2019-05-09T16:38:01.475Z,12.90
2019-05-09T16:40:19.658Z,12.70
2019-05-09T16:42:50.940Z,12.70
2019-05-09T16:45:22.681Z,12.60
2019-05-09T16:47:59.038Z,12.60
2019-05-09T16:50:25.159Z,12.70
2019-05-09T16:52:59.525Z,12.60
2019-05-09T16:55:32.869Z,12.60
2019-05-09T16:58:03.111Z,12.60
2019-05-09T17:00:48.206Z,12.50
2019-05-09T17:03:17.946Z,12.50
2019-05-09T17:05:49.279Z,12.50
2019-05-09T17:08:18.240Z,12.50
2019-05-09T17:10:48.693Z,12.50
2019-05-09T17:13:18.553Z,12.40
2019-05-09T17:15:47.599Z,12.40
2019-05-09T17:18:19.408Z,12.40
2019-05-09T17:20:49.938Z,12.40
2019-05-09T17:23:29.259Z,12.40
2019-05-09T17:26:08.175Z,12.40
2019-05-09T17:28:37.589Z,12.30
2019-05-09T17:31:08.670Z,12.30
2019-05-09T17:33:38.010Z,12.30
2019-05-09T17:36:07.283Z,12.20
2019-05-09T17:38:47.842Z,12.20
2019-05-09T17:41:20.854Z,12.30
2019-05-09T17:43:49.563Z,12.20
2019-05-09T17:46:19.171Z,12.20
2019-05-09T17:48:49.269Z,12.10
2019-05-09T17:51:32.524Z,12.10
2019-05-09T17:53:52.177Z,11.90
2019-05-09T17:56:22.711Z,11.90
2019-05-09T17:58:51.575Z,11.90
2019-05-09T18:01:27.728Z,11.90
2019-05-09T18:03:58.866Z,11.80
2019-05-09T18:06:44.855Z,11.80
2019-05-09T18:09:18.778Z,11.80
2019-05-09T18:11:48.258Z,11.80
2019-05-09T18:14:20.821Z,11.80
2019-05-09T18:16:55.314Z,11.70
2019-05-09T18:19:31.234Z,11.80
2019-05-09T18:22:01.966Z,11.70
2019-05-09T18:24:37.655Z,11.70
2019-05-09T18:27:09.487Z,11.80
2019-05-09T18:29:39.692Z,11.80
2019-05-09T18:32:16.250Z,11.80
2019-05-09T18:34:48.645Z,11.80
2019-05-09T18:37:17.769Z,11.80
2019-05-09T18:39:48.434Z,11.80
2019-05-09T18:42:20.338Z,11.70
2019-05-09T18:44:49.021Z,11.70
2019-05-09T18:47:20.887Z,11.60
2019-05-09T18:49:49.594Z,11.60
2019-05-09T18:52:22.576Z,11.60
2019-05-09T18:54:54.206Z,11.50
2019-05-09T18:57:25.606Z,11.50
2019-05-09T19:00:01.351Z,11.50
2019-05-09T19:02:42.247Z,11.50
2019-05-09T19:05:13.139Z,11.50
2019-05-09T19:07:42.111Z,11.60
2019-05-09T19:10:15.431Z,11.60
2019-05-09T19:12:51.844Z,11.60
2019-05-09T19:15:34.526Z,11.50
2019-05-09T19:18:05.249Z,11.50
2019-05-09T19:20:38.958Z,11.50
2019-05-09T19:23:07.580Z,11.40
2019-05-09T19:25:36.320Z,11.40
2019-05-09T19:28:05.406Z,11.30
2019-05-09T19:30:34.122Z,11.30
2019-05-09T19:33:06.661Z,11.30
2019-05-09T19:35:38.719Z,11.30
2019-05-09T19:38:07.411Z,11.30
2019-05-09T19:40:40.156Z,11.20
2019-05-09T19:43:16.651Z,11.10
2019-05-09T19:45:45.378Z,11.10
2019-05-09T19:48:14.260Z,11.10
2019-05-09T19:50:48.977Z,11.10
2019-05-09T19:53:21.265Z,11.00
2019-05-09T19:55:53.836Z,11.10
2019-05-09T19:58:25.564Z,11.10
2019-05-09T20:00:56.886Z,11.00
2019-05-09T20:03:25.707Z,11.10
2019-05-09T20:06:04.498Z,11.10
2019-05-09T20:08:34.349Z,11.00
2019-05-09T20:11:24.705Z,11.00
2019-05-09T20:14:00.128Z,10.90
2019-05-09T20:16:31.311Z,11.00
2019-05-09T20:19:00.166Z,10.90
2019-05-09T20:21:29.245Z,10.90
2019-05-09T20:23:58.001Z,10.90
2019-05-09T20:26:28.243Z,10.90
2019-05-09T20:28:56.866Z,10.90
2019-05-09T20:31:26.053Z,10.80
2019-05-09T20:34:05.939Z,10.80
2019-05-09T20:36:34.375Z,10.80
2019-05-09T20:39:04.716Z,10.90
2019-05-09T20:41:33.484Z,10.90
2019-05-09T20:44:02.733Z,10.80
2019-05-09T20:46:31.630Z,10.80
2019-05-09T20:49:07.279Z,10.80
2019-05-09T20:51:36.213Z,10.90
2019-05-09T20:54:20.427Z,10.90
2019-05-09T20:56:44.350Z,10.80
2019-05-09T20:59:15.609Z,10.70
2019-05-09T21:01:45.155Z,10.80
2019-05-09T21:04:14.103Z,10.80
2019-05-09T21:06:43.005Z,10.70
2019-05-09T21:09:11.909Z,10.70
2019-05-09T21:11:41.080Z,10.70
2019-05-09T21:14:10.171Z,10.70
2019-05-09T21:16:39.000Z,10.60
2019-05-09T21:19:14.019Z,10.60
2019-05-09T21:21:38.866Z,10.60
2019-05-09T21:24:07.859Z,10.60
2019-05-09T21:26:36.721Z,10.50
2019-05-09T21:29:05.621Z,10.60
2019-05-09T21:31:37.589Z,10.50
2019-05-09T21:34:06.656Z,10.60
2019-05-09T21:36:35.291Z,10.50
2019-05-09T21:39:05.789Z,10.40
2019-05-09T21:41:37.667Z,10.50
2019-05-09T21:44:06.485Z,10.40
2019-05-09T21:46:35.243Z,10.50
2019-05-09T21:49:06.103Z,10.50
2019-05-09T21:51:44.449Z,10.40
2019-05-09T21:54:17.952Z,10.40
2019-05-09T21:56:47.894Z,10.40
2019-05-09T21:59:22.581Z,10.30
2019-05-09T22:01:54.191Z,10.40
2019-05-09T22:04:24.894Z,10.40
2019-05-09T22:07:02.300Z,10.30
2019-05-09T22:09:31.012Z,10.30
2019-05-09T22:12:00.220Z,10.20
2019-05-09T22:14:28.890Z,10.30
2019-05-09T22:17:01.806Z,10.20
2019-05-09T22:19:30.374Z,10.20
2019-05-09T22:21:59.161Z,10.20
2019-05-09T22:24:27.842Z,10.20
2019-05-09T22:26:56.405Z,10.20
2019-05-09T22:29:25.192Z,10.20
2019-05-09T22:31:53.832Z,10.20
2019-05-09T22:34:23.926Z,10.20
2019-05-09T22:36:52.856Z,10.20
2019-05-09T22:39:21.438Z,10.20
2019-05-09T22:41:50.262Z,10.10
2019-05-09T22:44:21.717Z,10.20
2019-05-09T22:46:50.359Z,10.20
2019-05-09T22:49:23.830Z,10.20
2019-05-09T22:51:52.502Z,10.20
2019-05-09T22:54:21.640Z,10.20
2019-05-09T22:56:50.362Z,10.20
2019-05-09T22:59:19.358Z,10.20
2019-05-09T23:01:51.228Z,10.20
2019-05-09T23:04:19.864Z,10.30
2019-05-09T23:06:48.526Z,10.20
2019-05-09T23:09:17.227Z,10.20
2019-05-09T23:11:46.332Z,10.20
2019-05-09T23:14:16.130Z,10.20
2019-05-09T23:16:44.841Z,10.20
2019-05-09T23:19:14.739Z,10.10
2019-05-09T23:21:43.477Z,10.20
2019-05-09T23:24:28.260Z,10.20
2019-05-09T23:26:46.933Z,10.20
2019-05-09T23:29:17.645Z,10.20
2019-05-09T23:31:47.815Z,10.10
2019-05-09T23:34:16.478Z,10.10
2019-05-09T23:36:45.127Z,10.10
2019-05-09T23:39:15.458Z,10.10
2019-05-09T23:41:44.185Z,10.00
2019-05-09T23:44:13.739Z,10.10
2019-05-09T23:46:42.778Z,10.00
2019-05-09T23:49:11.513Z,10.00
2019-05-09T23:51:45.120Z,9.90
2019-05-09T23:54:45.052Z,9.90
2019-05-09T23:57:21.317Z,9.80
